createdAt,value
2022-10-01T00:00:04.613Z,99050.61
2022-10-01T00:00:49.382Z,99049.45
2022-10-01T00:01:38.558Z,99049.92
2022-10-01T00:02:12.124Z,99048.35
2022-10-01T00:02:45.537Z,99046.53
2022-10-01T00:03:19.925Z,99048.84
2022-10-01T00:03:53.623Z,99052.13
2022-10-01T00:04:27.995Z,99051.08
2022-10-01T00:05:01.685Z,99051.40
2022-10-01T00:05:34.884Z,99050.52
2022-10-01T00:06:12.355Z,99050.91
2022-10-01T00:06:45.641Z,99052.00
2022-10-01T00:07:18.930Z,99048.50
2022-10-01T00:07:52.253Z,99049.23
2022-10-01T00:08:25.670Z,99048.23
2022-10-01T00:08:59.134Z,99044.10
2022-10-01T00:09:32.705Z,99042.08
2022-10-01T00:10:07.048Z,99039.41
2022-10-01T00:10:44.473Z,99036.00
2022-10-01T00:11:26.401Z,99038.55
2022-10-01T00:12:00.211Z,99035.39
2022-10-01T00:12:35.091Z,99034.80
2022-10-01T00:13:08.686Z,99033.66
2022-10-01T00:13:46.543Z,99038.09
2022-10-01T00:14:20.290Z,99037.98
2022-10-01T00:14:53.463Z,99037.51
2022-10-01T00:15:26.872Z,99037.79
2022-10-01T00:16:00.710Z,99040.50
2022-10-01T00:16:34.003Z,99037.54
2022-10-01T00:17:07.341Z,99033.89
2022-10-01T00:17:41.227Z,99032.88
2022-10-01T00:18:14.896Z,99032.73
2022-10-01T00:18:49.613Z,99032.66
2022-10-01T00:19:23.103Z,99028.12
2022-10-01T00:19:56.325Z,99026.51
2022-10-01T00:20:29.741Z,99025.05
2022-10-01T00:21:07.518Z,99024.85
2022-10-01T00:21:40.921Z,99021.00
2022-10-01T00:22:14.070Z,99019.09
2022-10-01T00:22:47.671Z,99020.27
2022-10-01T00:23:20.873Z,99019.41
2022-10-01T00:23:59.814Z,99021.56
2022-10-01T00:24:33.209Z,99018.08
2022-10-01T00:25:07.345Z,99016.21
2022-10-01T00:25:41.653Z,99018.31
2022-10-01T00:26:21.213Z,99016.41
2022-10-01T00:26:54.388Z,99017.02
2022-10-01T00:27:28.039Z,99013.98
2022-10-01T00:28:01.526Z,99015.01
2022-10-01T00:28:34.831Z,99015.73
2022-10-01T00:29:13.146Z,99014.40
2022-10-01T00:29:46.290Z,99014.56
2022-10-01T00:30:19.574Z,99012.33
2022-10-01T00:30:52.843Z,99014.36
2022-10-01T00:31:27.428Z,99015.54
2022-10-01T00:32:00.952Z,99014.88
2022-10-01T00:32:34.155Z,99014.19
2022-10-01T00:33:07.454Z,99010.50
2022-10-01T00:33:40.926Z,99014.75
2022-10-01T00:34:16.109Z,99016.82
2022-10-01T00:34:49.462Z,99018.56
2022-10-01T00:35:23.604Z,99019.73
2022-10-01T00:35:57.397Z,99020.71
2022-10-01T00:36:32.117Z,99022.06
2022-10-01T00:37:05.343Z,99021.30
2022-10-01T00:37:39.243Z,99022.42
2022-10-01T00:38:14.346Z,99023.52
2022-10-01T00:38:48.653Z,99024.81
2022-10-01T00:39:22.505Z,99023.02
2022-10-01T00:39:55.791Z,99028.41
2022-10-01T00:40:29.212Z,99030.60
2022-10-01T00:41:03.900Z,99031.98
2022-10-01T00:41:37.569Z,99029.77
2022-10-01T00:42:27.022Z,99029.55
2022-10-01T00:43:00.266Z,99032.43
2022-10-01T00:43:37.053Z,99030.89
2022-10-01T00:44:32.469Z,99030.48
2022-10-01T00:45:05.981Z,99032.27
2022-10-01T00:45:39.848Z,99028.45
2022-10-01T00:46:28.147Z,99029.11
2022-10-01T00:47:11.716Z,99028.18
2022-10-01T00:48:00.705Z,99027.70
2022-10-01T00:48:44.742Z,99028.14
2022-10-01T00:49:24.524Z,99028.16
2022-10-01T00:50:16.750Z,99029.95
2022-10-01T00:50:52.123Z,99029.79
2022-10-01T00:51:35.858Z,99028.48
2022-10-01T00:52:14.129Z,99030.07
2022-10-01T00:52:52.449Z,99024.40
2022-10-01T00:53:26.746Z,99028.13
2022-10-01T00:54:10.756Z,99025.95
2022-10-01T00:55:05.013Z,99024.73
2022-10-01T00:55:43.169Z,99022.64
2022-10-01T00:56:16.380Z,99022.07
2022-10-01T00:56:55.751Z,99015.80
2022-10-01T00:57:29.905Z,99015.06
2022-10-01T00:58:05.277Z,99012.27
2022-10-01T00:58:39.824Z,99009.27
2022-10-01T00:59:16.450Z,99009.36
2022-10-01T00:59:52.360Z,99014.14
2022-10-01T01:00:25.772Z,99009.24
2022-10-01T01:00:59.379Z,99009.61
2022-10-01T01:01:36.926Z,99012.50
2022-10-01T01:02:11.536Z,99012.10
2022-10-01T01:02:45.017Z,99009.73
2022-10-01T01:03:18.681Z,99011.22
2022-10-01T01:03:52.180Z,99008.52
2022-10-01T01:04:25.533Z,99006.77
2022-10-01T01:04:59.513Z,99009.00
2022-10-01T01:05:33.080Z,99008.63
2022-10-01T01:06:08.431Z,99010.69
2022-10-01T01:06:41.599Z,99004.95
2022-10-01T01:07:16.252Z,99006.45
2022-10-01T01:07:53.021Z,99006.78
2022-10-01T01:08:26.284Z,99006.89
2022-10-01T01:08:59.692Z,99010.29
2022-10-01T01:09:44.971Z,99006.97
2022-10-01T01:10:28.387Z,99009.69
2022-10-01T01:11:35.633Z,99007.41
2022-10-01T01:12:21.308Z,99013.41
2022-10-01T01:12:54.424Z,99011.48
2022-10-01T01:13:37.662Z,99011.65
2022-10-01T01:14:20.424Z,99010.39
2022-10-01T01:15:14.434Z,99007.96
2022-10-01T01:16:12.953Z,99007.17
2022-10-01T01:17:03.586Z,99003.77
2022-10-01T01:18:03.873Z,99004.90
2022-10-01T01:18:48.173Z,99002.33
2022-10-01T01:19:41.566Z,99001.70
2022-10-01T01:20:26.783Z,99001.38
2022-10-01T01:21:09.259Z,99002.95
2022-10-01T01:21:45.956Z,99002.49
2022-10-01T01:22:24.742Z,99004.13
2022-10-01T01:23:08.874Z,99005.27
2022-10-01T01:24:04.198Z,99006.58
2022-10-01T01:24:49.016Z,99004.67
2022-10-01T01:25:38.738Z,99001.02
2022-10-01T01:26:19.275Z,98999.27
2022-10-01T01:27:10.851Z,98999.44
2022-10-01T01:27:48.921Z,99000.13
2022-10-01T01:28:31.886Z,99000.77
2022-10-01T01:29:28.652Z,98999.34
2022-10-01T01:30:11.948Z,98997.64
2022-10-01T01:30:49.685Z,98999.30
2022-10-01T01:31:30.698Z,98998.22
2022-10-01T01:32:14.853Z,98995.42
2022-10-01T01:32:59.527Z,98995.83
2022-10-01T01:33:37.522Z,98994.72
2022-10-01T01:34:14.446Z,98993.30
2022-10-01T01:34:50.609Z,98996.91
2022-10-01T01:35:42.500Z,98996.70
2022-10-01T01:36:19.695Z,98994.04
2022-10-01T01:36:59.902Z,98996.11
2022-10-01T01:37:40.483Z,98993.27
2022-10-01T01:38:19.133Z,98996.06
2022-10-01T01:38:58.840Z,98996.40
2022-10-01T01:39:35.176Z,98995.34
2022-10-01T01:40:12.524Z,98996.11
2022-10-01T01:40:51.871Z,98996.27
2022-10-01T01:41:29.606Z,98996.20
2022-10-01T01:42:09.775Z,98997.42
2022-10-01T01:42:45.071Z,98996.69
2022-10-01T01:43:24.573Z,98998.27
2022-10-01T01:44:02.458Z,98996.44
2022-10-01T01:44:40.103Z,98998.55
2022-10-01T01:45:20.394Z,98997.05
2022-10-01T01:45:56.855Z,98996.57
2022-10-01T01:46:34.402Z,98993.64
2022-10-01T01:47:10.836Z,98991.82
2022-10-01T01:47:46.034Z,98991.65
2022-10-01T01:48:19.279Z,98993.28
2022-10-01T01:48:53.601Z,98991.83
2022-10-01T01:49:27.075Z,98990.16
2022-10-01T01:50:06.360Z,98989.70
2022-10-01T01:51:08.679Z,98991.40
2022-10-01T01:51:53.416Z,98991.56
2022-10-01T01:52:26.762Z,98990.71
2022-10-01T01:53:00.289Z,98992.58
2022-10-01T01:53:34.808Z,98992.58
2022-10-01T01:54:08.909Z,98990.67
2022-10-01T01:54:50.002Z,98993.27
2022-10-01T01:55:25.596Z,98993.34
2022-10-01T01:56:00.596Z,98991.11
2022-10-01T01:56:34.648Z,98993.81
2022-10-01T01:57:09.140Z,98995.83
2022-10-01T01:57:44.548Z,98999.23
2022-10-01T01:58:19.127Z,99001.81
2022-10-01T01:58:54.221Z,99004.29
2022-10-01T01:59:28.101Z,99004.33
2022-10-01T02:00:02.692Z,99004.77
2022-10-01T02:00:36.895Z,99006.52
2022-10-01T02:01:34.781Z,99006.15
2022-10-01T02:02:13.725Z,99008.98
2022-10-01T02:02:52.121Z,99010.16
2022-10-01T02:03:29.539Z,99008.11
2022-10-01T02:04:07.133Z,99009.69
2022-10-01T02:04:57.825Z,99009.52
2022-10-01T02:05:55.309Z,99011.48
2022-10-01T02:06:48.808Z,99012.55
2022-10-01T02:07:37.649Z,99016.27
2022-10-01T02:08:41.617Z,99020.88
2022-10-01T02:09:48.983Z,99024.66
2022-10-01T02:10:34.542Z,99028.82
2022-10-01T02:11:22.039Z,99029.67
2022-10-01T02:12:09.671Z,99033.00
2022-10-01T02:13:01.887Z,99031.93
2022-10-01T02:13:50.475Z,99034.66
2022-10-01T02:14:43.899Z,99033.59
2022-10-01T02:15:35.569Z,99034.16
2022-10-01T02:16:27.894Z,99029.52
2022-10-01T02:17:11.452Z,99028.52
2022-10-01T02:17:54.056Z,99027.88
2022-10-01T02:18:36.247Z,99027.36
2022-10-01T02:19:28.270Z,99024.59
2022-10-01T02:20:14.365Z,99024.19
2022-10-01T02:21:04.664Z,99024.73
2022-10-01T02:21:42.475Z,99018.93
2022-10-01T02:22:23.960Z,99018.08
2022-10-01T02:23:10.359Z,99017.88
2022-10-01T02:23:59.845Z,99016.74
2022-10-01T02:24:41.734Z,99016.13
2022-10-01T02:25:19.504Z,99016.16
2022-10-01T02:25:58.705Z,99014.38
2022-10-01T02:26:35.475Z,99013.41
2022-10-01T02:27:30.715Z,99017.98
2022-10-01T02:28:33.180Z,99018.15
2022-10-01T02:29:10.210Z,99017.67
2022-10-01T02:29:45.627Z,99017.23
2022-10-01T02:30:19.460Z,99017.31
2022-10-01T02:30:56.230Z,99018.96
2022-10-01T02:31:32.689Z,99019.36
2022-10-01T02:32:07.279Z,99021.36
2022-10-01T02:32:44.877Z,99014.23
2022-10-01T02:33:24.753Z,99011.73
2022-10-01T02:34:00.345Z,99012.70
2022-10-01T02:34:34.290Z,99011.27
2022-10-01T02:35:11.147Z,99008.57
2022-10-01T02:35:46.844Z,99007.23
2022-10-01T02:36:23.211Z,99004.55
2022-10-01T02:36:59.706Z,99008.92
2022-10-01T02:37:34.711Z,99009.20
2022-10-01T02:38:11.115Z,99012.29
2022-10-01T02:38:46.742Z,99011.00
2022-10-01T02:39:23.307Z,99015.30
2022-10-01T02:39:58.921Z,99012.27
2022-10-01T02:40:36.733Z,99009.35
2022-10-01T02:41:12.952Z,99012.42
2022-10-01T02:41:50.583Z,99008.41
2022-10-01T02:42:27.837Z,99004.88
2022-10-01T02:43:12.427Z,99006.95
2022-10-01T02:43:57.483Z,99004.47
2022-10-01T02:44:40.478Z,99007.45
2022-10-01T02:45:18.484Z,99007.00
2022-10-01T02:45:58.938Z,99001.77
2022-10-01T02:47:10.963Z,98999.14
2022-10-01T02:47:48.112Z,98996.81
2022-10-01T02:48:21.743Z,98996.62
2022-10-01T02:48:56.186Z,98991.74
2022-10-01T02:49:31.035Z,98993.89
2022-10-01T02:50:06.752Z,98997.29
2022-10-01T02:50:53.267Z,98992.79
2022-10-01T02:51:53.585Z,98993.58
2022-10-01T02:52:29.702Z,98993.01
2022-10-01T02:53:10.272Z,98992.16
2022-10-01T02:53:53.379Z,98995.85
2022-10-01T02:54:52.459Z,98993.81
2022-10-01T02:55:31.127Z,98995.88
2022-10-01T02:56:06.101Z,98999.42
2022-10-01T02:56:59.658Z,99000.00
2022-10-01T02:57:33.323Z,99004.88
2022-10-01T02:58:08.049Z,99006.12
2022-10-01T02:58:42.253Z,99006.77
2022-10-01T02:59:15.382Z,99010.58
2022-10-01T02:59:49.216Z,99007.02
2022-10-01T03:00:23.096Z,99006.42
2022-10-01T03:00:56.393Z,99009.90
2022-10-01T03:01:30.137Z,99011.23
2022-10-01T03:02:04.148Z,99010.98
2022-10-01T03:02:37.795Z,99013.65
2022-10-01T03:03:11.197Z,99014.19
2022-10-01T03:03:44.451Z,99014.88
2022-10-01T03:04:19.462Z,99015.16
2022-10-01T03:04:52.612Z,99017.03
2022-10-01T03:05:26.056Z,99015.08
2022-10-01T03:05:59.303Z,99017.29
2022-10-01T03:06:35.349Z,99013.34
2022-10-01T03:07:08.744Z,99013.99
2022-10-01T03:07:42.270Z,99012.73
2022-10-01T03:08:15.520Z,99013.54
2022-10-01T03:08:48.863Z,99012.04
2022-10-01T03:09:22.082Z,99009.38
2022-10-01T03:09:55.316Z,99011.08
2022-10-01T03:10:28.846Z,99012.20
2022-10-01T03:11:02.389Z,99009.33
2022-10-01T03:11:36.048Z,99009.42
2022-10-01T03:12:10.865Z,99007.48
2022-10-01T03:12:48.248Z,99009.46
2022-10-01T03:13:23.743Z,99011.46
2022-10-01T03:13:57.425Z,99013.33
2022-10-01T03:14:32.567Z,99011.95
2022-10-01T03:15:07.063Z,99015.82
2022-10-01T03:15:40.220Z,99015.21
2022-10-01T03:16:13.672Z,99015.42
2022-10-01T03:16:46.789Z,99017.10
2022-10-01T03:17:20.629Z,99017.73
2022-10-01T03:17:54.208Z,99017.52
2022-10-01T03:18:27.440Z,99018.52
2022-10-01T03:19:00.588Z,99017.44
2022-10-01T03:19:33.955Z,99016.59
2022-10-01T03:20:07.897Z,99011.94
2022-10-01T03:20:41.003Z,99014.52
2022-10-01T03:21:14.356Z,99015.35
2022-10-01T03:21:48.126Z,99013.36
2022-10-01T03:22:25.536Z,99011.09
2022-10-01T03:22:58.781Z,99014.20
2022-10-01T03:23:32.083Z,99013.04
2022-10-01T03:24:05.337Z,99014.73
2022-10-01T03:24:38.817Z,99012.86
2022-10-01T03:25:11.965Z,99014.27
2022-10-01T03:25:45.135Z,99016.17
2022-10-01T03:26:18.348Z,99017.89
2022-10-01T03:26:51.670Z,99015.05
2022-10-01T03:27:24.976Z,99012.79
2022-10-01T03:27:59.371Z,99009.95
2022-10-01T03:28:32.540Z,99014.33
2022-10-01T03:29:06.671Z,99015.17
2022-10-01T03:29:39.757Z,99013.48
2022-10-01T03:30:13.685Z,99013.19
2022-10-01T03:30:46.934Z,99011.08
2022-10-01T03:31:20.232Z,99008.83
2022-10-01T03:31:54.300Z,99011.05
2022-10-01T03:32:27.624Z,99009.63
2022-10-01T03:33:01.086Z,99007.55
2022-10-01T03:33:34.382Z,99009.70
2022-10-01T03:34:07.534Z,99008.81
2022-10-01T03:34:41.312Z,99008.33
2022-10-01T03:35:14.571Z,99008.01
2022-10-01T03:35:47.960Z,99008.12
2022-10-01T03:36:21.208Z,99006.98
2022-10-01T03:36:54.430Z,99006.02
2022-10-01T03:37:27.599Z,99008.77
2022-10-01T03:38:02.990Z,99009.55
2022-10-01T03:38:36.048Z,99008.05
2022-10-01T03:39:09.476Z,99010.92
2022-10-01T03:39:43.035Z,99011.58
2022-10-01T03:40:16.218Z,99012.40
2022-10-01T03:40:49.891Z,99011.30
2022-10-01T03:41:23.122Z,99013.05
2022-10-01T03:41:56.596Z,99014.34
2022-10-01T03:42:29.877Z,99013.77
2022-10-01T03:43:02.982Z,99019.73
2022-10-01T03:43:36.266Z,99016.00
2022-10-01T03:44:09.518Z,99018.47
2022-10-01T03:44:43.953Z,99017.17
2022-10-01T03:45:17.174Z,99018.91
2022-10-01T03:45:50.142Z,99019.84
2022-10-01T03:46:23.480Z,99020.00
2022-10-01T03:46:56.616Z,99024.14
2022-10-01T03:47:29.994Z,99025.02
2022-10-01T03:48:03.195Z,99025.59
2022-10-01T03:48:36.207Z,99025.91
2022-10-01T03:49:09.618Z,99026.73
2022-10-01T03:49:42.660Z,99023.89
2022-10-01T03:50:15.889Z,99022.88
2022-10-01T03:51:00.002Z,99027.09
2022-10-01T03:51:33.918Z,99026.64
2022-10-01T03:52:07.282Z,99022.66
2022-10-01T03:52:41.954Z,99023.79
2022-10-01T03:53:15.282Z,99023.66
2022-10-01T03:53:48.622Z,99022.81
2022-10-01T03:54:22.024Z,99023.83
2022-10-01T03:54:55.130Z,99023.79
2022-10-01T03:55:28.651Z,99021.65
2022-10-01T03:56:02.057Z,99023.63
2022-10-01T03:56:36.239Z,99022.34
2022-10-01T03:57:09.693Z,99024.73
2022-10-01T03:57:42.778Z,99026.22
2022-10-01T03:58:16.946Z,99025.60
2022-10-01T03:58:50.523Z,99025.31
2022-10-01T03:59:23.766Z,99024.41
2022-10-01T03:59:56.957Z,99025.54
2022-10-01T04:00:30.175Z,99023.54
2022-10-01T04:01:03.486Z,99022.00
2022-10-01T04:01:37.579Z,99023.56
2022-10-01T04:02:11.396Z,99023.52
2022-10-01T04:02:45.332Z,99025.63
2022-10-01T04:03:19.107Z,99024.48
2022-10-01T04:03:53.148Z,99022.84
2022-10-01T04:04:26.231Z,99020.62
2022-10-01T04:04:59.467Z,99017.98
2022-10-01T04:05:32.810Z,99016.94
2022-10-01T04:06:06.290Z,99014.83
2022-10-01T04:06:39.517Z,99017.25
2022-10-01T04:07:12.753Z,99016.16
2022-10-01T04:07:46.559Z,99015.95
2022-10-01T04:08:24.050Z,99013.48
2022-10-01T04:08:58.134Z,99018.18
2022-10-01T04:09:31.451Z,99015.17
2022-10-01T04:10:04.937Z,99014.09
2022-10-01T04:10:38.833Z,99014.53
2022-10-01T04:11:12.174Z,99012.55
2022-10-01T04:11:45.562Z,99010.77
2022-10-01T04:12:19.186Z,99008.27
2022-10-01T04:12:54.150Z,99010.45
2022-10-01T04:13:28.282Z,99010.75
2022-10-01T04:14:01.677Z,99010.58
2022-10-01T04:14:34.824Z,99013.55
2022-10-01T04:15:08.553Z,99010.34
2022-10-01T04:15:42.029Z,99012.05
2022-10-01T04:16:16.442Z,99013.69
2022-10-01T04:16:52.784Z,99013.27
2022-10-01T04:17:25.907Z,99014.38
2022-10-01T04:18:00.066Z,99014.02
2022-10-01T04:18:34.479Z,99016.33
2022-10-01T04:19:07.653Z,99016.77
2022-10-01T04:19:40.878Z,99017.45
2022-10-01T04:20:14.452Z,99020.50
2022-10-01T04:20:48.516Z,99022.50
2022-10-01T04:21:21.722Z,99019.45
2022-10-01T04:21:54.876Z,99019.59
2022-10-01T04:22:28.068Z,99018.08
2022-10-01T04:23:02.126Z,99016.95
2022-10-01T04:23:35.530Z,99014.91
2022-10-01T04:24:08.684Z,99015.20
2022-10-01T04:24:41.924Z,99011.12
2022-10-01T04:25:15.367Z,99011.52
2022-10-01T04:25:49.247Z,99009.19
2022-10-01T04:26:22.580Z,99006.48
2022-10-01T04:26:55.863Z,99010.67
2022-10-01T04:27:29.341Z,99010.95
2022-10-01T04:28:06.387Z,99007.72
2022-10-01T04:28:39.830Z,99006.47
2022-10-01T04:29:12.981Z,99009.31
2022-10-01T04:29:46.177Z,99006.96
2022-10-01T04:30:19.405Z,99006.23
2022-10-01T04:31:12.534Z,99010.04
2022-10-01T04:31:46.012Z,99006.60
2022-10-01T04:32:22.556Z,99006.92
2022-10-01T04:32:55.779Z,99007.05
2022-10-01T04:33:28.821Z,99008.26
2022-10-01T04:34:02.164Z,99009.79
2022-10-01T04:34:53.602Z,99009.55
2022-10-01T04:35:27.247Z,99012.76
2022-10-01T04:36:00.482Z,99009.52
2022-10-01T04:36:33.851Z,99004.77
2022-10-01T04:37:07.117Z,99004.60
2022-10-01T04:37:40.369Z,99003.39
2022-10-01T04:38:16.796Z,99000.67
2022-10-01T04:38:59.279Z,98998.36
2022-10-01T04:39:35.249Z,98999.09
2022-10-01T04:40:10.959Z,98996.14
2022-10-01T04:40:44.131Z,98992.48
2022-10-01T04:41:17.368Z,98994.23
2022-10-01T04:41:50.738Z,98994.32
2022-10-01T04:42:23.909Z,98995.17
2022-10-01T04:42:57.672Z,98992.59
2022-10-01T04:43:31.188Z,98993.68
2022-10-01T04:44:04.799Z,98994.45
2022-10-01T04:44:38.163Z,98989.67
2022-10-01T04:45:12.143Z,98987.16
2022-10-01T04:45:45.400Z,98987.05
2022-10-01T04:46:18.803Z,98988.30
2022-10-01T04:46:51.995Z,98986.50
2022-10-01T04:47:25.287Z,98982.30
2022-10-01T04:47:58.874Z,98984.73
2022-10-01T04:48:31.898Z,98986.34
2022-10-01T04:49:05.362Z,98982.54
2022-10-01T04:49:39.485Z,98983.79
2022-10-01T04:50:12.966Z,98981.40
2022-10-01T04:50:46.101Z,98983.67
2022-10-01T04:51:19.306Z,98980.91
2022-10-01T04:51:52.513Z,98984.44
2022-10-01T04:52:25.831Z,98986.29
2022-10-01T04:52:59.035Z,98985.40
2022-10-01T04:53:32.685Z,98984.22
2022-10-01T04:54:05.867Z,98982.36
2022-10-01T04:54:39.046Z,98981.10
2022-10-01T04:55:12.369Z,98981.67
2022-10-01T04:55:46.602Z,98982.61
2022-10-01T04:56:19.798Z,98980.11
2022-10-01T04:56:53.225Z,98982.90
2022-10-01T04:57:26.424Z,98979.01
2022-10-01T04:57:59.660Z,98984.80
2022-10-01T04:58:33.396Z,98985.97
2022-10-01T04:59:06.571Z,98985.29
2022-10-01T04:59:39.588Z,98989.14
2022-10-01T05:00:19.339Z,98992.00
2022-10-01T05:00:52.526Z,98991.36
2022-10-01T05:01:25.708Z,98990.39
2022-10-01T05:01:59.079Z,98987.77
2022-10-01T05:02:34.677Z,98988.83
2022-10-01T05:03:08.085Z,98986.35
2022-10-01T05:03:41.530Z,98984.23
2022-10-01T05:04:14.992Z,98982.54
2022-10-01T05:04:48.389Z,98982.17
2022-10-01T05:05:24.789Z,98980.71
2022-10-01T05:05:58.055Z,98979.86
2022-10-01T05:06:31.514Z,98982.40
2022-10-01T05:07:04.810Z,98981.23
2022-10-01T05:07:40.195Z,98988.02
2022-10-01T05:08:13.441Z,98983.71
2022-10-01T05:08:47.990Z,98985.52
2022-10-01T05:09:21.249Z,98981.27
2022-10-01T05:09:54.324Z,98985.40
2022-10-01T05:10:27.852Z,98989.77
2022-10-01T05:11:00.976Z,98987.34
2022-10-01T05:11:35.141Z,98992.41
2022-10-01T05:12:08.634Z,98990.98
2022-10-01T05:12:42.307Z,98993.94
2022-10-01T05:13:15.465Z,98990.02
2022-10-01T05:13:48.756Z,98993.10
2022-10-01T05:14:22.291Z,98990.98
2022-10-01T05:14:56.971Z,98992.58
2022-10-01T05:15:30.629Z,98989.90
2022-10-01T05:16:03.974Z,98995.70
2022-10-01T05:16:37.975Z,98991.98
2022-10-01T05:17:11.280Z,98994.08
2022-10-01T05:17:45.008Z,98995.58
2022-10-01T05:18:18.156Z,98995.41
2022-10-01T05:18:51.447Z,98996.59
2022-10-01T05:19:27.950Z,98994.21
2022-10-01T05:20:02.414Z,98994.36
2022-10-01T05:20:35.587Z,98999.80
2022-10-01T05:21:10.360Z,98996.17
2022-10-01T05:21:44.187Z,98996.30
2022-10-01T05:22:17.334Z,98997.80
2022-10-01T05:22:51.071Z,98996.09
2022-10-01T05:23:24.279Z,98995.98
2022-10-01T05:23:57.477Z,98995.05
2022-10-01T05:24:30.700Z,98998.25
2022-10-01T05:25:04.407Z,98996.83
2022-10-01T05:25:37.796Z,98996.83
2022-10-01T05:26:11.141Z,98997.85
2022-10-01T05:26:44.437Z,98995.38
2022-10-01T05:27:17.945Z,98999.68
2022-10-01T05:27:51.381Z,98991.98
2022-10-01T05:28:24.784Z,98993.52
2022-10-01T05:29:00.901Z,98997.33
2022-10-01T05:29:33.952Z,98995.91
2022-10-01T05:30:09.328Z,98994.70
2022-10-01T05:30:43.422Z,98999.56
2022-10-01T05:31:16.768Z,98999.72
2022-10-01T05:31:50.555Z,98998.67
2022-10-01T05:32:23.938Z,98998.91
2022-10-01T05:32:59.231Z,99000.42
2022-10-01T05:33:34.427Z,99003.41
2022-10-01T05:34:07.604Z,99005.16
2022-10-01T05:34:40.874Z,99005.96
2022-10-01T05:35:14.156Z,99007.17
2022-10-01T05:35:47.729Z,99006.55
2022-10-01T05:36:20.926Z,99006.80
2022-10-01T05:36:55.296Z,99007.02
2022-10-01T05:37:28.499Z,99003.71
2022-10-01T05:38:03.222Z,99005.13
2022-10-01T05:38:37.631Z,99005.02
2022-10-01T05:39:10.964Z,99004.98
2022-10-01T05:39:44.348Z,99007.08
2022-10-01T05:40:18.398Z,99005.34
2022-10-01T05:40:51.853Z,99004.08
2022-10-01T05:41:24.970Z,99008.51
2022-10-01T05:42:03.933Z,99010.37
2022-10-01T05:42:39.803Z,99013.17
2022-10-01T05:43:13.934Z,99016.00
2022-10-01T05:43:50.252Z,99017.02
2022-10-01T05:44:24.394Z,99017.80
2022-10-01T05:44:57.804Z,99013.05
2022-10-01T05:45:32.583Z,99014.98
2022-10-01T05:46:06.430Z,99015.96
2022-10-01T05:46:40.058Z,99017.55
2022-10-01T05:47:14.808Z,99016.46
2022-10-01T05:47:49.564Z,99017.11
2022-10-01T05:48:22.911Z,99016.63
2022-10-01T05:48:56.425Z,99018.52
2022-10-01T05:49:29.957Z,99020.75
2022-10-01T05:50:03.733Z,99017.88
2022-10-01T05:50:40.548Z,99021.38
2022-10-01T05:51:16.794Z,99022.82
2022-10-01T05:51:50.333Z,99021.56
2022-10-01T05:52:23.794Z,99020.27
2022-10-01T05:52:57.764Z,99022.09
2022-10-01T05:53:31.387Z,99021.42
2022-10-01T05:54:04.770Z,99020.55
2022-10-01T05:54:38.603Z,99019.39
2022-10-01T05:55:11.789Z,99019.50
2022-10-01T05:55:45.279Z,99015.61
2022-10-01T05:56:19.200Z,99014.58
2022-10-01T05:56:53.843Z,99016.46
2022-10-01T05:57:27.169Z,99015.86
2022-10-01T05:58:10.878Z,99014.45
2022-10-01T05:58:44.337Z,99021.30
2022-10-01T05:59:17.906Z,99018.05
2022-10-01T05:59:51.249Z,99019.51
2022-10-01T06:00:28.450Z,99020.48
2022-10-01T06:01:02.135Z,99020.16
2022-10-01T06:01:35.999Z,99020.58
2022-10-01T06:02:10.430Z,99021.12
2022-10-01T06:02:44.351Z,99021.36
2022-10-01T06:03:18.028Z,99018.86
2022-10-01T06:03:54.991Z,99016.27
2022-10-01T06:04:28.431Z,99020.08
2022-10-01T06:05:02.798Z,99022.60
2022-10-01T06:05:37.025Z,99020.09
2022-10-01T06:06:11.125Z,99022.89
2022-10-01T06:06:45.113Z,99023.05
2022-10-01T06:07:18.640Z,99024.75
2022-10-01T06:07:52.699Z,99021.05
2022-10-01T06:08:29.080Z,99021.85
2022-10-01T06:09:02.639Z,99025.06
2022-10-01T06:09:36.089Z,99022.52
2022-10-01T06:10:09.668Z,99021.17
2022-10-01T06:10:43.096Z,99023.90
2022-10-01T06:11:17.467Z,99022.73
2022-10-01T06:11:50.874Z,99020.96
2022-10-01T06:12:24.477Z,99023.92
2022-10-01T06:13:02.171Z,99025.67
2022-10-01T06:13:36.524Z,99024.36
2022-10-01T06:14:09.841Z,99028.30
2022-10-01T06:14:43.142Z,99028.66
2022-10-01T06:15:18.096Z,99026.80
2022-10-01T06:15:53.201Z,99028.39
2022-10-01T06:16:26.302Z,99028.76
2022-10-01T06:16:59.613Z,99026.72
2022-10-01T06:17:33.531Z,99026.60
2022-10-01T06:18:09.012Z,99029.60
2022-10-01T06:18:42.820Z,99025.88
2022-10-01T06:19:17.750Z,99025.06
2022-10-01T06:19:51.832Z,99025.27
2022-10-01T06:20:25.059Z,99024.88
2022-10-01T06:21:00.473Z,99024.64
2022-10-01T06:21:34.167Z,99022.90
2022-10-01T06:22:08.044Z,99024.65
2022-10-01T06:22:43.426Z,99023.59
2022-10-01T06:23:16.610Z,99024.11
2022-10-01T06:23:50.746Z,99021.88
2022-10-01T06:24:23.975Z,99023.63
2022-10-01T06:24:57.346Z,99021.36
2022-10-01T06:25:31.303Z,99024.09
2022-10-01T06:26:06.324Z,99018.67
2022-10-01T06:26:39.664Z,99018.35
2022-10-01T06:27:13.062Z,99022.05
2022-10-01T06:27:53.760Z,99018.48
2022-10-01T06:28:28.138Z,99020.36
2022-10-01T06:29:03.173Z,99019.56
2022-10-01T06:29:36.453Z,99017.98
2022-10-01T06:30:10.655Z,99017.84
2022-10-01T06:30:44.002Z,99019.26
2022-10-01T06:31:18.485Z,99018.52
2022-10-01T06:31:52.097Z,99015.00
2022-10-01T06:32:25.450Z,99015.24
2022-10-01T06:33:03.162Z,99018.96
2022-10-01T06:33:37.231Z,99012.86
2022-10-01T06:34:10.838Z,99014.30
2022-10-01T06:34:43.891Z,99017.52
2022-10-01T06:35:18.146Z,99015.38
2022-10-01T06:35:52.377Z,99016.77
2022-10-01T06:36:25.575Z,99014.35
2022-10-01T06:36:58.700Z,99014.06
2022-10-01T06:37:32.414Z,99013.57
2022-10-01T06:38:06.597Z,99014.84
2022-10-01T06:38:39.851Z,99013.67
2022-10-01T06:39:12.959Z,99011.06
2022-10-01T06:39:46.367Z,99012.36
2022-10-01T06:40:19.739Z,99015.52
2022-10-01T06:41:01.136Z,99011.52
2022-10-01T06:41:34.930Z,99009.75
2022-10-01T06:42:08.495Z,99009.68
2022-10-01T06:42:48.278Z,99010.59
2022-10-01T06:43:22.406Z,99012.05
2022-10-01T06:43:55.711Z,99009.77
2022-10-01T06:44:29.360Z,99010.52
2022-10-01T06:45:02.733Z,99012.54
2022-10-01T06:45:43.923Z,99011.30
2022-10-01T06:46:17.423Z,99011.83
2022-10-01T06:46:50.662Z,99014.23
2022-10-01T06:47:24.755Z,99012.61
2022-10-01T06:48:03.012Z,99010.11
2022-10-01T06:48:36.908Z,99013.23
2022-10-01T06:49:10.109Z,99012.51
2022-10-01T06:49:47.314Z,99012.95
2022-10-01T06:50:21.078Z,99012.47
2022-10-01T06:50:56.313Z,99014.79
2022-10-01T06:51:48.505Z,99012.67
2022-10-01T06:52:40.898Z,99011.03
2022-10-01T06:53:18.119Z,99010.78
2022-10-01T06:53:52.297Z,99012.24
2022-10-01T06:54:28.098Z,99010.83
2022-10-01T06:55:02.570Z,99009.41
2022-10-01T06:55:37.574Z,99010.83
2022-10-01T06:56:10.878Z,99009.86
2022-10-01T06:56:44.776Z,99009.40
2022-10-01T06:57:18.172Z,99011.25
2022-10-01T06:57:56.923Z,99010.00
2022-10-01T06:58:30.532Z,99010.15
2022-10-01T06:59:04.570Z,99011.72
2022-10-01T06:59:37.993Z,99014.36
2022-10-01T07:00:12.858Z,99016.10
2022-10-01T07:00:47.923Z,99020.39
2022-10-01T07:01:22.307Z,99022.79
2022-10-01T07:01:56.346Z,99020.30
2022-10-01T07:02:30.392Z,99021.48
2022-10-01T07:03:11.398Z,99023.84
2022-10-01T07:03:44.613Z,99024.33
2022-10-01T07:04:17.857Z,99022.73
2022-10-01T07:04:51.162Z,99022.56
2022-10-01T07:05:25.724Z,99021.71